sensor_id;sensor_type;location;lat;lon;timestamp;temperature;humidity
4695;DHT22;2361;49.540;8.390;2022-09-03T00:00:18;20.20;67.10
4695;DHT22;2361;49.540;8.390;2022-09-03T00:03:07;20.20;67.00
4695;DHT22;2361;49.540;8.390;2022-09-03T00:09:14;20.20;67.30
4695;DHT22;2361;49.540;8.390;2022-09-03T00:20:16;20.30;67.90
4695;DHT22;2361;49.540;8.390;2022-09-03T00:22:52;20.30;68.10
4695;DHT22;2361;49.540;8.390;2022-09-03T00:26:00;20.30;67.70
4695;DHT22;2361;49.540;8.390;2022-09-03T00:28:29;20.30;67.70
4695;DHT22;2361;49.540;8.390;2022-09-03T00:31:18;20.20;67.90
4695;DHT22;2361;49.540;8.390;2022-09-03T00:33:53;20.20;68.00
4695;DHT22;2361;49.540;8.390;2022-09-03T00:36:28;20.20;67.90
4695;DHT22;2361;49.540;8.390;2022-09-03T00:39:00;20.20;68.30
4695;DHT22;2361;49.540;8.390;2022-09-03T00:55:54;20.00;69.20
4695;DHT22;2361;49.540;8.390;2022-09-03T01:00:55;20.00;69.30
4695;DHT22;2361;49.540;8.390;2022-09-03T01:03:49;20.00;69.30
4695;DHT22;2361;49.540;8.390;2022-09-03T01:06:41;19.90;69.40
4695;DHT22;2361;49.540;8.390;2022-09-03T01:10:24;19.90;69.70
4695;DHT22;2361;49.540;8.390;2022-09-03T01:22:18;19.80;70.10
4695;DHT22;2361;49.540;8.390;2022-09-03T01:30:56;19.80;70.10
4695;DHT22;2361;49.540;8.390;2022-09-03T01:34:19;19.70;70.30
4695;DHT22;2361;49.540;8.390;2022-09-03T01:37:25;19.70;70.30
4695;DHT22;2361;49.540;8.390;2022-09-03T01:42:39;19.80;71.10
4695;DHT22;2361;49.540;8.390;2022-09-03T01:45:53;19.70;71.10
4695;DHT22;2361;49.540;8.390;2022-09-03T01:51:16;19.80;70.50
4695;DHT22;2361;49.540;8.390;2022-09-03T02:00:18;19.80;70.70
4695;DHT22;2361;49.540;8.390;2022-09-03T02:02:50;19.80;70.60
4695;DHT22;2361;49.540;8.390;2022-09-03T02:05:20;19.80;70.60
4695;DHT22;2361;49.540;8.390;2022-09-03T02:07:53;19.80;71.00
4695;DHT22;2361;49.540;8.390;2022-09-03T02:10:26;19.70;71.20
4695;DHT22;2361;49.540;8.390;2022-09-03T02:15:43;19.70;71.70
4695;DHT22;2361;49.540;8.390;2022-09-03T02:18:23;19.60;72.00
4695;DHT22;2361;49.540;8.390;2022-09-03T02:20:53;19.60;72.00
4695;DHT22;2361;49.540;8.390;2022-09-03T02:23:20;19.60;72.10
4695;DHT22;2361;49.540;8.390;2022-09-03T02:25:59;19.70;72.10
4695;DHT22;2361;49.540;8.390;2022-09-03T02:28:29;19.70;72.20
4695;DHT22;2361;49.540;8.390;2022-09-03T02:30:57;19.70;72.50
4695;DHT22;2361;49.540;8.390;2022-09-03T02:33:25;19.60;72.60
4695;DHT22;2361;49.540;8.390;2022-09-03T02:35:53;19.60;72.60
4695;DHT22;2361;49.540;8.390;2022-09-03T02:38:25;19.60;72.80
4695;DHT22;2361;49.540;8.390;2022-09-03T02:40:52;19.60;73.80
4695;DHT22;2361;49.540;8.390;2022-09-03T02:43:44;19.50;74.30
4695;DHT22;2361;49.540;8.390;2022-09-03T02:46:24;19.50;74.50
4695;DHT22;2361;49.540;8.390;2022-09-03T02:48:55;19.40;74.50
4695;DHT22;2361;49.540;8.390;2022-09-03T02:51:22;19.40;74.70
4695;DHT22;2361;49.540;8.390;2022-09-03T02:53:49;19.40;74.60
4695;DHT22;2361;49.540;8.390;2022-09-03T02:56:16;19.50;74.30
4695;DHT22;2361;49.540;8.390;2022-09-03T02:58:43;19.50;74.30
4695;DHT22;2361;49.540;8.390;2022-09-03T03:01:10;19.50;74.20
4695;DHT22;2361;49.540;8.390;2022-09-03T03:03:49;19.50;74.40
4695;DHT22;2361;49.540;8.390;2022-09-03T03:06:16;19.60;74.40
4695;DHT22;2361;49.540;8.390;2022-09-03T03:08:47;19.50;74.80
4695;DHT22;2361;49.540;8.390;2022-09-03T03:11:14;19.40;75.40
4695;DHT22;2361;49.540;8.390;2022-09-03T03:13:44;19.40;75.80
4695;DHT22;2361;49.540;8.390;2022-09-03T03:16:14;19.40;76.20
4695;DHT22;2361;49.540;8.390;2022-09-03T03:18:42;19.30;76.60
4695;DHT22;2361;49.540;8.390;2022-09-03T03:21:13;19.30;77.10
4695;DHT22;2361;49.540;8.390;2022-09-03T03:23:42;19.30;77.40
4695;DHT22;2361;49.540;8.390;2022-09-03T03:26:12;19.20;77.60
4695;DHT22;2361;49.540;8.390;2022-09-03T03:28:40;19.20;78.00
4695;DHT22;2361;49.540;8.390;2022-09-03T03:31:10;19.20;78.40
4695;DHT22;2361;49.540;8.390;2022-09-03T03:33:41;19.30;78.80
4695;DHT22;2361;49.540;8.390;2022-09-03T03:36:11;19.20;79.40
4695;DHT22;2361;49.540;8.390;2022-09-03T03:38:40;19.20;79.70
4695;DHT22;2361;49.540;8.390;2022-09-03T03:43:44;19.10;80.60
4695;DHT22;2361;49.540;8.390;2022-09-03T03:46:11;19.10;81.10
4695;DHT22;2361;49.540;8.390;2022-09-03T03:48:39;19.10;81.20
4695;DHT22;2361;49.540;8.390;2022-09-03T03:51:08;19.10;81.40
4695;DHT22;2361;49.540;8.390;2022-09-03T03:53:37;19.10;81.70
4695;DHT22;2361;49.540;8.390;2022-09-03T03:56:06;19.20;82.10
4695;DHT22;2361;49.540;8.390;2022-09-03T03:58:35;19.20;82.30
4695;DHT22;2361;49.540;8.390;2022-09-03T04:01:08;19.20;82.50
4695;DHT22;2361;49.540;8.390;2022-09-03T04:03:40;19.20;82.70
4695;DHT22;2361;49.540;8.390;2022-09-03T04:06:08;19.20;83.30
4695;DHT22;2361;49.540;8.390;2022-09-03T04:08:38;19.20;83.50
4695;DHT22;2361;49.540;8.390;2022-09-03T04:11:08;19.20;83.60
4695;DHT22;2361;49.540;8.390;2022-09-03T04:13:39;19.20;84.20
4695;DHT22;2361;49.540;8.390;2022-09-03T04:16:12;19.20;84.60
4695;DHT22;2361;49.540;8.390;2022-09-03T04:18:48;19.20;84.90
4695;DHT22;2361;49.540;8.390;2022-09-03T04:21:18;19.20;85.00
4695;DHT22;2361;49.540;8.390;2022-09-03T04:23:48;19.20;85.50
4695;DHT22;2361;49.540;8.390;2022-09-03T04:26:21;19.20;85.60
4695;DHT22;2361;49.540;8.390;2022-09-03T04:28:50;19.20;85.70
4695;DHT22;2361;49.540;8.390;2022-09-03T04:31:19;19.20;86.10
4695;DHT22;2361;49.540;8.390;2022-09-03T04:33:46;19.20;86.60
4695;DHT22;2361;49.540;8.390;2022-09-03T04:36:15;19.20;87.00
4695;DHT22;2361;49.540;8.390;2022-09-03T04:38:48;19.20;87.40
4695;DHT22;2361;49.540;8.390;2022-09-03T04:41:18;19.20;87.50
4695;DHT22;2361;49.540;8.390;2022-09-03T04:43:47;19.20;87.70
4695;DHT22;2361;49.540;8.390;2022-09-03T04:46:17;19.20;87.90
4695;DHT22;2361;49.540;8.390;2022-09-03T04:48:51;19.20;87.30
4695;DHT22;2361;49.540;8.390;2022-09-03T04:51:23;19.20;87.50
4695;DHT22;2361;49.540;8.390;2022-09-03T04:53:55;19.20;87.50
4695;DHT22;2361;49.540;8.390;2022-09-03T04:56:26;19.30;87.50
4695;DHT22;2361;49.540;8.390;2022-09-03T04:58:57;19.30;86.70
4695;DHT22;2361;49.540;8.390;2022-09-03T05:01:29;19.20;86.40
4695;DHT22;2361;49.540;8.390;2022-09-03T05:03:58;19.20;86.40
4695;DHT22;2361;49.540;8.390;2022-09-03T05:06:26;19.20;86.80
4695;DHT22;2361;49.540;8.390;2022-09-03T05:08:55;19.20;88.10
4695;DHT22;2361;49.540;8.390;2022-09-03T05:11:23;19.20;90.90
4695;DHT22;2361;49.540;8.390;2022-09-03T05:13:52;19.10;92.20
4695;DHT22;2361;49.540;8.390;2022-09-03T05:16:22;19.10;94.10
4695;DHT22;2361;49.540;8.390;2022-09-03T05:18:57;19.00;95.30
4695;DHT22;2361;49.540;8.390;2022-09-03T05:21:26;19.00;96.10
4695;DHT22;2361;49.540;8.390;2022-09-03T05:23:54;18.90;97.10
4695;DHT22;2361;49.540;8.390;2022-09-03T05:26:24;18.80;98.50
4695;DHT22;2361;49.540;8.390;2022-09-03T05:28:56;18.80;99.10
4695;DHT22;2361;49.540;8.390;2022-09-03T05:31:26;18.80;99.90
4695;DHT22;2361;49.540;8.390;2022-09-03T05:33:58;18.70;99.90
4695;DHT22;2361;49.540;8.390;2022-09-03T05:36:28;18.70;99.90
4695;DHT22;2361;49.540;8.390;2022-09-03T05:38:58;18.60;99.90
4695;DHT22;2361;49.540;8.390;2022-09-03T05:41:26;18.60;99.90
4695;DHT22;2361;49.540;8.390;2022-09-03T05:43:55;18.70;99.90
4695;DHT22;2361;49.540;8.390;2022-09-03T05:46:28;18.80;99.90
4695;DHT22;2361;49.540;8.390;2022-09-03T05:48:58;18.80;99.90
4695;DHT22;2361;49.540;8.390;2022-09-03T05:51:30;18.80;99.90
4695;DHT22;2361;49.540;8.390;2022-09-03T05:53:58;18.90;99.90
4695;DHT22;2361;49.540;8.390;2022-09-03T05:56:27;18.90;99.90
4695;DHT22;2361;49.540;8.390;2022-09-03T05:58:59;19.00;99.90
4695;DHT22;2361;49.540;8.390;2022-09-03T06:01:48;19.00;99.90
4695;DHT22;2361;49.540;8.390;2022-09-03T06:04:19;19.10;99.90
4695;DHT22;2361;49.540;8.390;2022-09-03T06:06:47;19.20;99.90
4695;DHT22;2361;49.540;8.390;2022-09-03T06:09:19;19.30;99.90
4695;DHT22;2361;49.540;8.390;2022-09-03T06:11:49;19.30;99.90
4695;DHT22;2361;49.540;8.390;2022-09-03T06:14:18;19.40;99.90
4695;DHT22;2361;49.540;8.390;2022-09-03T06:16:47;19.50;99.90
4695;DHT22;2361;49.540;8.390;2022-09-03T06:19:15;19.50;99.90
4695;DHT22;2361;49.540;8.390;2022-09-03T06:21:44;19.60;99.90
4695;DHT22;2361;49.540;8.390;2022-09-03T06:24:19;19.50;99.50
4695;DHT22;2361;49.540;8.390;2022-09-03T06:26:54;19.40;99.50
4695;DHT22;2361;49.540;8.390;2022-09-03T06:29:22;19.30;99.90
4695;DHT22;2361;49.540;8.390;2022-09-03T06:31:49;19.30;99.80
4695;DHT22;2361;49.540;8.390;2022-09-03T06:34:16;19.20;99.80
4695;DHT22;2361;49.540;8.390;2022-09-03T06:36:48;19.20;99.90
4695;DHT22;2361;49.540;8.390;2022-09-03T06:39:15;19.20;99.90
4695;DHT22;2361;49.540;8.390;2022-09-03T06:41:42;19.10;99.90
4695;DHT22;2361;49.540;8.390;2022-09-03T06:44:11;19.10;99.90
4695;DHT22;2361;49.540;8.390;2022-09-03T06:46:39;19.10;99.90
4695;DHT22;2361;49.540;8.390;2022-09-03T06:49:10;19.10;99.90
4695;DHT22;2361;49.540;8.390;2022-09-03T06:51:37;19.00;99.90
4695;DHT22;2361;49.540;8.390;2022-09-03T06:54:09;19.10;99.90
4695;DHT22;2361;49.540;8.390;2022-09-03T06:56:38;19.20;99.90
4695;DHT22;2361;49.540;8.390;2022-09-03T06:59:12;19.10;99.90
4695;DHT22;2361;49.540;8.390;2022-09-03T07:01:40;19.10;99.90
4695;DHT22;2361;49.540;8.390;2022-09-03T07:04:13;19.00;99.90
4695;DHT22;2361;49.540;8.390;2022-09-03T07:06:46;18.70;99.90
4695;DHT22;2361;49.540;8.390;2022-09-03T07:09:12;18.60;99.90
4695;DHT22;2361;49.540;8.390;2022-09-03T07:11:42;18.50;99.90
4695;DHT22;2361;49.540;8.390;2022-09-03T07:14:17;18.40;99.90
4695;DHT22;2361;49.540;8.390;2022-09-03T07:16:46;18.50;99.90
4695;DHT22;2361;49.540;8.390;2022-09-03T07:19:15;18.50;99.90
4695;DHT22;2361;49.540;8.390;2022-09-03T07:21:42;18.50;99.90
4695;DHT22;2361;49.540;8.390;2022-09-03T07:24:15;18.60;99.90
4695;DHT22;2361;49.540;8.390;2022-09-03T07:26:42;18.70;99.90
4695;DHT22;2361;49.540;8.390;2022-09-03T07:29:15;18.50;99.90
4695;DHT22;2361;49.540;8.390;2022-09-03T07:31:46;18.60;99.90
4695;DHT22;2361;49.540;8.390;2022-09-03T07:34:16;18.60;99.90
4695;DHT22;2361;49.540;8.390;2022-09-03T07:36:46;18.70;99.90
4695;DHT22;2361;49.540;8.390;2022-09-03T07:39:15;18.90;99.90
4695;DHT22;2361;49.540;8.390;2022-09-03T07:41:46;18.90;99.90
4695;DHT22;2361;49.540;8.390;2022-09-03T07:44:14;18.90;99.90
4695;DHT22;2361;49.540;8.390;2022-09-03T07:46:45;18.80;99.90
4695;DHT22;2361;49.540;8.390;2022-09-03T07:49:13;18.90;99.90
4695;DHT22;2361;49.540;8.390;2022-09-03T07:51:40;18.90;99.90
4695;DHT22;2361;49.540;8.390;2022-09-03T07:54:09;19.00;99.90
4695;DHT22;2361;49.540;8.390;2022-09-03T07:56:38;18.90;99.90
4695;DHT22;2361;49.540;8.390;2022-09-03T07:59:06;18.80;99.90
4695;DHT22;2361;49.540;8.390;2022-09-03T08:01:34;18.60;99.90
4695;DHT22;2361;49.540;8.390;2022-09-03T08:04:02;18.50;99.90
4695;DHT22;2361;49.540;8.390;2022-09-03T08:06:35;18.50;99.90
4695;DHT22;2361;49.540;8.390;2022-09-03T08:09:05;18.30;99.90
4695;DHT22;2361;49.540;8.390;2022-09-03T08:11:36;18.20;99.90
4695;DHT22;2361;49.540;8.390;2022-09-03T08:14:06;18.20;99.90
4695;DHT22;2361;49.540;8.390;2022-09-03T08:16:38;18.20;99.90
4695;DHT22;2361;49.540;8.390;2022-09-03T08:19:07;18.20;99.90
4695;DHT22;2361;49.540;8.390;2022-09-03T08:21:35;18.20;99.90
4695;DHT22;2361;49.540;8.390;2022-09-03T08:24:02;18.30;99.90
4695;DHT22;2361;49.540;8.390;2022-09-03T08:26:32;18.40;99.90
4695;DHT22;2361;49.540;8.390;2022-09-03T08:29:01;18.40;99.90
4695;DHT22;2361;49.540;8.390;2022-09-03T08:31:29;18.30;99.90
4695;DHT22;2361;49.540;8.390;2022-09-03T08:33:58;18.30;99.90
4695;DHT22;2361;49.540;8.390;2022-09-03T08:36:36;18.40;99.90
4695;DHT22;2361;49.540;8.390;2022-09-03T08:39:05;18.50;99.90
4695;DHT22;2361;49.540;8.390;2022-09-03T08:41:45;18.70;99.90
4695;DHT22;2361;49.540;8.390;2022-09-03T08:44:45;18.70;99.90
4695;DHT22;2361;49.540;8.390;2022-09-03T08:47:29;18.80;99.90
4695;DHT22;2361;49.540;8.390;2022-09-03T08:56:20;18.90;99.90
4695;DHT22;2361;49.540;8.390;2022-09-03T08:58:51;19.30;99.90
4695;DHT22;2361;49.540;8.390;2022-09-03T09:08:26;20.40;99.90
4695;DHT22;2361;49.540;8.390;2022-09-03T09:13:57;20.00;99.90
4695;DHT22;2361;49.540;8.390;2022-09-03T09:16:46;19.70;99.90
4695;DHT22;2361;49.540;8.390;2022-09-03T09:22:44;19.50;99.90
4695;DHT22;2361;49.540;8.390;2022-09-03T09:25:17;19.30;99.90
4695;DHT22;2361;49.540;8.390;2022-09-03T09:28:12;19.50;99.90
4695;DHT22;2361;49.540;8.390;2022-09-03T09:30:46;20.20;99.90
4695;DHT22;2361;49.540;8.390;2022-09-03T09:33:15;20.90;99.90
4695;DHT22;2361;49.540;8.390;2022-09-03T09:35:44;21.60;99.90
4695;DHT22;2361;49.540;8.390;2022-09-03T09:38:11;23.80;99.90
4695;DHT22;2361;49.540;8.390;2022-09-03T09:40:43;26.20;99.70
4695;DHT22;2361;49.540;8.390;2022-09-03T09:43:18;25.80;98.80
4695;DHT22;2361;49.540;8.390;2022-09-03T09:45:50;25.00;99.20
4695;DHT22;2361;49.540;8.390;2022-09-03T09:48:25;24.40;99.90
4695;DHT22;2361;49.540;8.390;2022-09-03T09:51:09;24.90;99.90
4695;DHT22;2361;49.540;8.390;2022-09-03T09:53:41;27.30;97.40
4695;DHT22;2361;49.540;8.390;2022-09-03T09:56:08;27.90;94.90
4695;DHT22;2361;49.540;8.390;2022-09-03T09:58:46;27.30;95.20
4695;DHT22;2361;49.540;8.390;2022-09-03T10:01:22;26.40;96.10
4695;DHT22;2361;49.540;8.390;2022-09-03T10:03:56;25.90;96.20
4695;DHT22;2361;49.540;8.390;2022-09-03T10:06:26;25.60;97.40
4695;DHT22;2361;49.540;8.390;2022-09-03T10:09:16;25.50;96.80
4695;DHT22;2361;49.540;8.390;2022-09-03T10:12:35;26.30;96.60
4695;DHT22;2361;49.540;8.390;2022-09-03T10:20:17;32.70;84.40
4695;DHT22;2361;49.540;8.390;2022-09-03T10:25:42;34.50;73.60
4695;DHT22;2361;49.540;8.390;2022-09-03T10:28:17;35.10;69.40
4695;DHT22;2361;49.540;8.390;2022-09-03T10:31:02;34.90;68.20
4695;DHT22;2361;49.540;8.390;2022-09-03T10:33:59;34.10;68.80
4695;DHT22;2361;49.540;8.390;2022-09-03T10:42:34;29.70;78.00
4695;DHT22;2361;49.540;8.390;2022-09-03T10:48:13;28.70;82.50
4695;DHT22;2361;49.540;8.390;2022-09-03T10:51:03;28.00;85.20
4695;DHT22;2361;49.540;8.390;2022-09-03T11:05:36;26.60;91.30
4695;DHT22;2361;49.540;8.390;2022-09-03T11:08:31;26.30;91.90
4695;DHT22;2361;49.540;8.390;2022-09-03T11:16:21;25.80;93.70
4695;DHT22;2361;49.540;8.390;2022-09-03T11:19:27;25.30;94.40
4695;DHT22;2361;49.540;8.390;2022-09-03T11:22:14;24.90;95.90
4695;DHT22;2361;49.540;8.390;2022-09-03T11:24:54;24.90;96.30
4695;DHT22;2361;49.540;8.390;2022-09-03T11:30:09;25.00;96.70
4695;DHT22;2361;49.540;8.390;2022-09-03T11:32:49;25.00;97.10
4695;DHT22;2361;49.540;8.390;2022-09-03T11:38:02;24.60;97.60
4695;DHT22;2361;49.540;8.390;2022-09-03T11:43:23;25.00;97.30
4695;DHT22;2361;49.540;8.390;2022-09-03T11:48:52;25.30;97.60
4695;DHT22;2361;49.540;8.390;2022-09-03T11:53:59;25.20;96.20
4695;DHT22;2361;49.540;8.390;2022-09-03T11:56:29;25.10;96.20
4695;DHT22;2361;49.540;8.390;2022-09-03T11:59:04;24.70;96.10
4695;DHT22;2361;49.540;8.390;2022-09-03T12:01:55;24.80;96.30
4695;DHT22;2361;49.540;8.390;2022-09-03T12:16:58;24.40;97.30
4695;DHT22;2361;49.540;8.390;2022-09-03T12:22:02;24.30;95.90
4695;DHT22;2361;49.540;8.390;2022-09-03T12:24:31;24.20;96.70
4695;DHT22;2361;49.540;8.390;2022-09-03T12:27:04;24.40;96.60
4695;DHT22;2361;49.540;8.390;2022-09-03T12:29:31;24.60;96.70
4695;DHT22;2361;49.540;8.390;2022-09-03T12:32:07;24.80;96.40
4695;DHT22;2361;49.540;8.390;2022-09-03T12:34:44;25.00;95.50
4695;DHT22;2361;49.540;8.390;2022-09-03T12:37:20;24.90;95.50
4695;DHT22;2361;49.540;8.390;2022-09-03T12:40:27;25.00;95.50
4695;DHT22;2361;49.540;8.390;2022-09-03T12:43:14;25.00;95.00
4695;DHT22;2361;49.540;8.390;2022-09-03T12:46:02;24.50;95.60
4695;DHT22;2361;49.540;8.390;2022-09-03T12:52:06;24.40;96.30
4695;DHT22;2361;49.540;8.390;2022-09-03T12:57:58;24.30;96.60
4695;DHT22;2361;49.540;8.390;2022-09-03T13:00:30;24.40;96.90
4695;DHT22;2361;49.540;8.390;2022-09-03T13:03:10;24.40;97.30
4695;DHT22;2361;49.540;8.390;2022-09-03T13:06:16;24.30;97.10
4695;DHT22;2361;49.540;8.390;2022-09-03T13:09:09;24.20;97.40
4695;DHT22;2361;49.540;8.390;2022-09-03T13:11:35;24.30;97.50
4695;DHT22;2361;49.540;8.390;2022-09-03T13:14:07;24.50;97.30
4695;DHT22;2361;49.540;8.390;2022-09-03T13:19:29;24.80;96.90
4695;DHT22;2361;49.540;8.390;2022-09-03T13:23:00;25.10;96.90
4695;DHT22;2361;49.540;8.390;2022-09-03T13:28:50;24.90;96.60
4695;DHT22;2361;49.540;8.390;2022-09-03T13:32:08;25.00;96.50
4695;DHT22;2361;49.540;8.390;2022-09-03T13:34:58;25.00;96.70
4695;DHT22;2361;49.540;8.390;2022-09-03T13:37:42;25.00;97.00
4695;DHT22;2361;49.540;8.390;2022-09-03T13:43:36;25.00;97.00
4695;DHT22;2361;49.540;8.390;2022-09-03T13:46:15;25.10;97.20
4695;DHT22;2361;49.540;8.390;2022-09-03T13:48:47;25.20;96.10
4695;DHT22;2361;49.540;8.390;2022-09-03T13:51:56;25.20;96.30
4695;DHT22;2361;49.540;8.390;2022-09-03T13:54:35;25.10;96.60
4695;DHT22;2361;49.540;8.390;2022-09-03T14:00:44;24.80;97.70
4695;DHT22;2361;49.540;8.390;2022-09-03T14:04:03;24.50;98.30
4695;DHT22;2361;49.540;8.390;2022-09-03T14:06:19;24.30;98.70
4695;DHT22;2361;49.540;8.390;2022-09-03T14:15:28;23.60;99.90
4695;DHT22;2361;49.540;8.390;2022-09-03T14:21:53;23.40;99.90
4695;DHT22;2361;49.540;8.390;2022-09-03T14:24:45;23.30;99.90
4695;DHT22;2361;49.540;8.390;2022-09-03T14:27:25;23.30;99.90
4695;DHT22;2361;49.540;8.390;2022-09-03T14:30:16;23.20;99.90
4695;DHT22;2361;49.540;8.390;2022-09-03T14:47:53;23.20;99.90
4695;DHT22;2361;49.540;8.390;2022-09-03T15:07:58;23.50;99.90
4695;DHT22;2361;49.540;8.390;2022-09-03T15:10:37;23.50;99.90
4695;DHT22;2361;49.540;8.390;2022-09-03T15:13:46;23.40;99.90
4695;DHT22;2361;49.540;8.390;2022-09-03T15:22:18;23.30;99.90
4695;DHT22;2361;49.540;8.390;2022-09-03T15:28:10;23.30;99.90
4695;DHT22;2361;49.540;8.390;2022-09-03T15:30:59;23.10;99.90
4695;DHT22;2361;49.540;8.390;2022-09-03T15:33:44;23.00;99.90
4695;DHT22;2361;49.540;8.390;2022-09-03T15:36:21;22.70;99.90
4695;DHT22;2361;49.540;8.390;2022-09-03T15:39:00;22.50;99.90
4695;DHT22;2361;49.540;8.390;2022-09-03T15:41:52;22.40;99.90
4695;DHT22;2361;49.540;8.390;2022-09-03T15:44:24;22.10;99.90
4695;DHT22;2361;49.540;8.390;2022-09-03T15:47:05;21.80;99.90
4695;DHT22;2361;49.540;8.390;2022-09-03T16:01:58;21.30;99.90
4695;DHT22;2361;49.540;8.390;2022-09-03T16:08:26;21.10;99.90
4695;DHT22;2361;49.540;8.390;2022-09-03T16:14:27;21.10;99.90
4695;DHT22;2361;49.540;8.390;2022-09-03T16:17:15;21.10;99.90
4695;DHT22;2361;49.540;8.390;2022-09-03T16:20:03;21.20;99.90
4695;DHT22;2361;49.540;8.390;2022-09-03T16:22:42;21.10;99.90
4695;DHT22;2361;49.540;8.390;2022-09-03T16:25:19;21.20;99.90
4695;DHT22;2361;49.540;8.390;2022-09-03T16:28:05;21.20;99.90
4695;DHT22;2361;49.540;8.390;2022-09-03T16:46:08;21.00;99.90
4695;DHT22;2361;49.540;8.390;2022-09-03T16:51:54;21.10;99.90
4695;DHT22;2361;49.540;8.390;2022-09-03T17:00:21;21.00;99.90
4695;DHT22;2361;49.540;8.390;2022-09-03T17:11:58;21.10;99.90
4695;DHT22;2361;49.540;8.390;2022-09-03T17:17:46;21.10;99.90
4695;DHT22;2361;49.540;8.390;2022-09-03T17:20:46;21.10;99.90
4695;DHT22;2361;49.540;8.390;2022-09-03T17:43:27;21.10;99.90
4695;DHT22;2361;49.540;8.390;2022-09-03T17:46:09;21.00;99.90
4695;DHT22;2361;49.540;8.390;2022-09-03T17:51:46;20.80;99.90
4695;DHT22;2361;49.540;8.390;2022-09-03T18:05:57;20.50;99.90
4695;DHT22;2361;49.540;8.390;2022-09-03T18:08:40;20.40;99.90
4695;DHT22;2361;49.540;8.390;2022-09-03T18:17:00;20.10;99.90
4695;DHT22;2361;49.540;8.390;2022-09-03T18:26:14;20.00;99.90
4695;DHT22;2361;49.540;8.390;2022-09-03T18:32:24;20.00;99.90
4695;DHT22;2361;49.540;8.390;2022-09-03T18:35:10;20.00;99.90
4695;DHT22;2361;49.540;8.390;2022-09-03T18:37:55;19.90;99.90
4695;DHT22;2361;49.540;8.390;2022-09-03T18:46:55;19.80;99.90
4695;DHT22;2361;49.540;8.390;2022-09-03T18:56:48;19.90;99.90
4695;DHT22;2361;49.540;8.390;2022-09-03T19:10:07;19.70;99.90
4695;DHT22;2361;49.540;8.390;2022-09-03T19:13:33;19.70;99.90
4695;DHT22;2361;49.540;8.390;2022-09-03T19:16:55;19.70;99.90
4695;DHT22;2361;49.540;8.390;2022-09-03T19:22:53;19.50;99.90
4695;DHT22;2361;49.540;8.390;2022-09-03T19:25:38;19.50;99.90
4695;DHT22;2361;49.540;8.390;2022-09-03T19:28:25;19.60;99.90
4695;DHT22;2361;49.540;8.390;2022-09-03T19:41:18;19.50;99.90
4695;DHT22;2361;49.540;8.390;2022-09-03T19:44:41;19.50;99.90
4695;DHT22;2361;49.540;8.390;2022-09-03T19:47:56;19.50;99.90
4695;DHT22;2361;49.540;8.390;2022-09-03T19:51:19;19.40;99.90
4695;DHT22;2361;49.540;8.390;2022-09-03T19:54:07;19.50;99.90
4695;DHT22;2361;49.540;8.390;2022-09-03T19:56:56;19.50;99.90
4695;DHT22;2361;49.540;8.390;2022-09-03T19:59:44;19.50;99.90
4695;DHT22;2361;49.540;8.390;2022-09-03T20:02:32;19.50;99.90
4695;DHT22;2361;49.540;8.390;2022-09-03T20:05:20;19.50;99.90
4695;DHT22;2361;49.540;8.390;2022-09-03T20:08:06;19.40;99.90
4695;DHT22;2361;49.540;8.390;2022-09-03T20:10:55;19.40;99.90
4695;DHT22;2361;49.540;8.390;2022-09-03T20:13:22;19.40;99.90
4695;DHT22;2361;49.540;8.390;2022-09-03T20:16:06;19.40;99.90
4695;DHT22;2361;49.540;8.390;2022-09-03T20:21:48;19.30;99.90
4695;DHT22;2361;49.540;8.390;2022-09-03T20:30:49;19.30;99.90
4695;DHT22;2361;49.540;8.390;2022-09-03T21:01:56;19.00;99.90
4695;DHT22;2361;49.540;8.390;2022-09-03T21:07:30;19.00;99.90
4695;DHT22;2361;49.540;8.390;2022-09-03T21:13:18;19.10;99.90
4695;DHT22;2361;49.540;8.390;2022-09-03T21:16:14;19.10;99.90
4695;DHT22;2361;49.540;8.390;2022-09-03T21:25:01;19.00;99.90
4695;DHT22;2361;49.540;8.390;2022-09-03T21:27:27;19.00;99.90
4695;DHT22;2361;49.540;8.390;2022-09-03T21:30:01;19.00;99.90
4695;DHT22;2361;49.540;8.390;2022-09-03T21:32:42;19.10;99.90
4695;DHT22;2361;49.540;8.390;2022-09-03T21:35:24;19.00;99.90
4695;DHT22;2361;49.540;8.390;2022-09-03T21:38:05;19.00;99.90
4695;DHT22;2361;49.540;8.390;2022-09-03T21:40:40;19.00;99.90
4695;DHT22;2361;49.540;8.390;2022-09-03T21:43:25;19.00;99.90
4695;DHT22;2361;49.540;8.390;2022-09-03T21:46:19;19.00;99.90
4695;DHT22;2361;49.540;8.390;2022-09-03T21:48:57;18.90;99.90
4695;DHT22;2361;49.540;8.390;2022-09-03T21:51:28;18.90;99.90
4695;DHT22;2361;49.540;8.390;2022-09-03T21:57:02;18.90;99.90
4695;DHT22;2361;49.540;8.390;2022-09-03T22:00:11;18.90;99.90
4695;DHT22;2361;49.540;8.390;2022-09-03T22:02:38;18.80;99.90
4695;DHT22;2361;49.540;8.390;2022-09-03T22:05:06;18.80;99.90
4695;DHT22;2361;49.540;8.390;2022-09-03T22:12:57;18.80;99.90
4695;DHT22;2361;49.540;8.390;2022-09-03T22:15:48;18.80;99.90
4695;DHT22;2361;49.540;8.390;2022-09-03T22:18:30;18.80;99.90
4695;DHT22;2361;49.540;8.390;2022-09-03T22:24:10;18.70;99.90
4695;DHT22;2361;49.540;8.390;2022-09-03T22:30:54;18.70;99.90
4695;DHT22;2361;49.540;8.390;2022-09-03T22:33:44;18.60;99.90
4695;DHT22;2361;49.540;8.390;2022-09-03T22:36:33;18.60;99.90
4695;DHT22;2361;49.540;8.390;2022-09-03T22:39:21;18.60;99.90
4695;DHT22;2361;49.540;8.390;2022-09-03T22:50:54;18.50;99.90
4695;DHT22;2361;49.540;8.390;2022-09-03T22:56:35;18.50;99.90
4695;DHT22;2361;49.540;8.390;2022-09-03T22:59:19;18.40;99.90
4695;DHT22;2361;49.540;8.390;2022-09-03T23:02:05;18.40;99.90
4695;DHT22;2361;49.540;8.390;2022-09-03T23:04:52;18.40;99.90
4695;DHT22;2361;49.540;8.390;2022-09-03T23:07:53;18.40;99.90
4695;DHT22;2361;49.540;8.390;2022-09-03T23:10:33;18.30;99.90
4695;DHT22;2361;49.540;8.390;2022-09-03T23:13:17;18.40;99.90
4695;DHT22;2361;49.540;8.390;2022-09-03T23:16:03;18.30;99.90
4695;DHT22;2361;49.540;8.390;2022-09-03T23:18:34;18.30;99.90
4695;DHT22;2361;49.540;8.390;2022-09-03T23:21:19;18.30;99.90
4695;DHT22;2361;49.540;8.390;2022-09-03T23:24:04;18.30;99.90
4695;DHT22;2361;49.540;8.390;2022-09-03T23:26:46;18.30;99.90
4695;DHT22;2361;49.540;8.390;2022-09-03T23:29:38;18.30;99.90
4695;DHT22;2361;49.540;8.390;2022-09-03T23:32:08;18.20;99.90
4695;DHT22;2361;49.540;8.390;2022-09-03T23:34:35;18.20;99.90
4695;DHT22;2361;49.540;8.390;2022-09-03T23:40:09;18.20;99.90
4695;DHT22;2361;49.540;8.390;2022-09-03T23:42:58;18.20;99.90
4695;DHT22;2361;49.540;8.390;2022-09-03T23:46:18;18.10;99.90
4695;DHT22;2361;49.540;8.390;2022-09-03T23:49:15;18.10;99.90
4695;DHT22;2361;49.540;8.390;2022-09-03T23:58:14;18.00;99.90
